Time;durP1;ratioP1;P1;durP2;ratioP2;P2;SDS_P1;SDS_P2;PMS_P1;PMS_P2;Temp;Humidity;BMP_temperature;BMP_pressure;BME280_temperature;BME280_humidity;BME280_pressure;Samples;Min_cycle;Max_cycle;Signal;HPM_P1;HPM_P2
2022/03/17 00:01:32;;;;;;;28.02;13.50;;;9.80;99.90;;;;;;5051859;28;20028;-52
2022/03/17 00:03:58;;;;;;;31.63;13.00;;;9.80;99.90;;;;;;5051813;28;20070;-48
2022/03/17 00:06:24;;;;;;;25.40;12.98;;;9.90;99.90;;;;;;5053326;28;20033;-48
2022/03/17 00:08:49;;;;;;;24.85;12.93;;;9.80;99.90;;;;;;5056897;28;20044;-52
2022/03/17 00:11:15;;;;;;;28.98;13.05;;;9.80;99.90;;;;;;5056853;28;20028;-48
2022/03/17 00:13:41;;;;;;;29.98;13.20;;;9.80;99.90;;;;;;5056928;28;20036;-48
2022/03/17 00:16:09;;;;;;;28.40;13.60;;;9.70;99.90;;;;;;5055411;28;20421;-48
2022/03/17 00:18:35;;;;;;;27.42;13.85;;;9.70;99.90;;;;;;5055792;28;20072;-51
2022/03/17 00:21:00;;;;;;;30.25;13.80;;;9.70;99.90;;;;;;5055732;28;20025;-49
2022/03/17 00:23:26;;;;;;;26.95;13.40;;;9.70;99.90;;;;;;5055455;28;20025;-48
2022/03/17 00:25:52;;;;;;;28.17;13.18;;;9.70;99.90;;;;;;5056140;28;20025;-48
2022/03/17 00:28:17;;;;;;;27.08;14.15;;;9.80;99.90;;;;;;5056490;28;20035;-49
2022/03/17 00:30:43;;;;;;;28.92;14.32;;;9.80;99.90;;;;;;5056808;28;20534;-49
2022/03/17 00:33:09;;;;;;;26.92;12.98;;;9.70;99.90;;;;;;5056516;28;20056;-50
2022/03/17 00:35:38;;;;;;;27.95;13.75;;;9.70;99.90;;;;;;5056373;28;20365;-48
2022/03/17 00:38:10;;;;;;;26.55;13.63;;;9.70;99.90;;;;;;5056874;28;20463;-48
2022/03/17 00:40:37;;;;;;;29.73;13.70;;;9.60;99.90;;;;;;5056631;28;20031;-48
2022/03/17 00:43:06;;;;;;;28.63;14.02;;;9.60;99.90;;;;;;5055036;28;20119;-52
2022/03/17 00:45:32;;;;;;;26.10;13.80;;;9.50;99.90;;;;;;5056135;28;20036;-51
2022/03/17 00:47:58;;;;;;;30.67;15.32;;;9.50;99.90;;;;;;5056352;28;20057;-48
2022/03/17 00:50:24;;;;;;;24.90;13.55;;;9.60;99.90;;;;;;5056238;28;20059;-48
2022/03/17 00:52:50;;;;;;;29.58;13.85;;;9.60;99.90;;;;;;5056436;28;20071;-48
2022/03/17 00:55:16;;;;;;;28.38;13.38;;;9.70;99.90;;;;;;5056085;28;20056;-48
2022/03/17 00:57:42;;;;;;;26.90;14.18;;;9.60;99.90;;;;;;5055969;28;20061;-48
2022/03/17 01:00:14;;;;;;;27.50;14.45;;;9.50;99.90;;;;;;5055643;28;20029;-48
2022/03/17 01:02:41;;;;;;;29.02;15.57;;;9.50;99.90;;;;;;5055588;28;20025;-49
2022/03/17 01:05:07;;;;;;;29.58;15.20;;;9.40;99.90;;;;;;5055992;28;20032;-48
2022/03/17 01:07:34;;;;;;;32.78;16.08;;;9.40;99.90;;;;;;5054401;28;20021;-49
2022/03/17 01:09:59;;;;;;;32.50;14.32;;;9.50;99.90;;;;;;5055788;28;20025;-51
2022/03/17 01:12:25;;;;;;;23.75;12.80;;;9.50;99.90;;;;;;5054578;28;20021;-48
2022/03/17 01:14:51;;;;;;;24.70;12.82;;;9.50;99.90;;;;;;5055053;28;20017;-48
2022/03/17 01:17:16;;;;;;;24.65;12.82;;;9.50;99.90;;;;;;5055016;28;20029;-48
2022/03/17 01:19:42;;;;;;;28.55;13.63;;;9.50;99.90;;;;;;5054225;28;20021;-48
2022/03/17 01:22:07;;;;;;;26.73;14.20;;;9.50;99.90;;;;;;5055665;28;20029;-48
2022/03/17 01:24:33;;;;;;;26.65;13.70;;;9.30;99.90;;;;;;5055518;28;20036;-51
2022/03/17 01:26:59;;;;;;;33.72;14.07;;;9.30;99.90;;;;;;5055416;28;20048;-48
2022/03/17 01:29:26;;;;;;;33.03;16.30;;;9.30;99.90;;;;;;5054128;28;20053;-49
2022/03/17 01:31:52;;;;;;;32.25;15.68;;;9.30;99.90;;;;;;5055422;28;20031;-45
2022/03/17 01:34:18;;;;;;;26.95;13.65;;;9.30;99.90;;;;;;5054061;28;20119;-48
2022/03/17 01:36:44;;;;;;;30.30;14.00;;;9.30;99.90;;;;;;5055219;28;20060;-50
2022/03/17 01:39:10;;;;;;;33.03;16.75;;;9.30;99.90;;;;;;5054063;28;20040;-45
2022/03/17 01:41:36;;;;;;;32.65;15.85;;;9.30;99.90;;;;;;5055166;28;20024;-46
2022/03/17 01:44:02;;;;;;;34.72;16.67;;;9.30;99.90;;;;;;5054759;28;20070;-48
2022/03/17 01:46:28;;;;;;;32.30;17.58;;;9.30;99.90;;;;;;5054105;28;20032;-47
2022/03/17 01:48:54;;;;;;;34.83;16.10;;;9.30;99.90;;;;;;5053799;28;20029;-45
2022/03/17 01:51:19;;;;;;;36.20;17.27;;;9.30;99.90;;;;;;5054127;28;20029;-48
2022/03/17 01:53:45;;;;;;;35.60;17.50;;;9.30;99.90;;;;;;5053795;28;20021;-47
2022/03/17 01:56:12;;;;;;;39.40;18.30;;;9.30;99.90;;;;;;5054925;28;20108;-46
2022/03/17 01:58:38;;;;;;;36.75;18.10;;;9.40;99.90;;;;;;5054906;28;20040;-45
2022/03/17 02:01:03;;;;;;;36.78;18.80;;;9.40;99.90;;;;;;5053584;28;20025;-45
2022/03/17 02:03:29;;;;;;;34.17;17.77;;;9.40;99.90;;;;;;5054800;28;20559;-47
2022/03/17 02:05:55;;;;;;;39.83;19.13;;;9.30;99.90;;;;;;5053329;28;20127;-46
2022/03/17 02:08:21;;;;;;;38.30;18.88;;;9.30;99.90;;;;;;5053745;28;20108;-48
2022/03/17 02:13:31;;;;;;;38.42;17.90;;;9.40;99.90;;;;;;5054726;28;20071;-45
2022/03/17 02:15:57;;;;;;;34.78;18.58;;;9.40;99.90;;;;;;5054510;28;20025;-46
2022/03/17 02:18:23;;;;;;;39.95;18.83;;;9.40;99.90;;;;;;5053533;28;20021;-46
2022/03/17 02:20:49;;;;;;;40.08;20.13;;;9.40;99.90;;;;;;5054721;28;20025;-45
2022/03/17 02:26:04;;;;;;;39.65;19.13;;;9.40;99.90;;;;;;5054799;28;20090;-46
2022/03/17 02:28:31;;;;;;;40.08;20.10;;;9.40;99.90;;;;;;5054217;28;20025;-46
2022/03/17 02:30:59;;;;;;;39.50;19.15;;;9.40;99.90;;;;;;5052076;28;20025;-45
2022/03/17 02:33:25;;;;;;;40.60;19.42;;;9.50;99.90;;;;;;5053227;28;20025;-46
2022/03/17 02:35:53;;;;;;;47.03;20.38;;;9.50;99.90;;;;;;5054120;28;20024;-45
2022/03/17 02:38:20;;;;;;;43.90;20.20;;;9.50;99.90;;;;;;5054110;28;20021;-46
2022/03/17 02:44:20;;;;;;;39.58;19.77;;;9.50;99.90;;;;;;5054368;28;20032;-51
2022/03/17 02:46:46;;;;;;;42.83;20.27;;;9.50;99.90;;;;;;5052581;28;20029;-48
2022/03/17 02:49:15;;;;;;;43.90;22.40;;;9.50;99.90;;;;;;5053966;28;20116;-48
2022/03/17 02:51:42;;;;;;;64.22;25.15;;;9.50;99.90;;;;;;5054262;28;20098;-48
2022/03/17 02:54:07;;;;;;;70.35;28.13;;;9.60;99.90;;;;;;5053819;28;20436;-48
2022/03/17 02:56:34;;;;;;;44.42;22.08;;;9.60;99.90;;;;;;5053632;28;20061;-48
2022/03/17 02:58:59;;;;;;;41.72;20.95;;;9.60;99.90;;;;;;5054036;28;20025;-48
2022/03/17 03:01:25;;;;;;;40.85;19.88;;;9.60;99.90;;;;;;5053679;28;20087;-48
2022/03/17 03:03:50;;;;;;;42.70;19.90;;;9.60;99.90;;;;;;5053576;28;20478;-48
2022/03/17 03:06:16;;;;;;;41.97;18.88;;;9.60;99.90;;;;;;5053527;28;20029;-48
2022/03/17 03:08:41;;;;;;;39.65;21.20;;;9.60;99.90;;;;;;5053535;28;20032;-48
2022/03/17 03:11:07;;;;;;;39.28;19.75;;;9.60;99.90;;;;;;5052273;28;20028;-49
2022/03/17 03:13:33;;;;;;;44.97;20.15;;;9.60;99.90;;;;;;5053491;28;20043;-49
2022/03/17 03:15:58;;;;;;;38.25;18.80;;;9.60;99.90;;;;;;5052489;28;20052;-48
2022/03/17 03:18:24;;;;;;;38.60;20.40;;;9.60;99.90;;;;;;5052566;28;20074;-47
2022/03/17 03:20:50;;;;;;;41.00;20.13;;;9.60;99.90;;;;;;5052182;28;20033;-48
2022/03/17 03:23:16;;;;;;;43.38;20.35;;;9.60;99.90;;;;;;5052211;28;20032;-50
2022/03/17 03:25:41;;;;;;;43.63;20.27;;;9.60;99.90;;;;;;5053324;28;20021;-49
2022/03/17 03:28:09;;;;;;;42.30;21.52;;;9.70;99.90;;;;;;5051751;28;20037;-50
2022/03/17 03:30:36;;;;;;;41.72;21.40;;;9.70;99.90;;;;;;5053314;28;20017;-50
2022/03/17 03:33:03;;;;;;;45.22;21.23;;;9.70;99.90;;;;;;5053251;28;20021;-53
2022/03/17 03:38:13;;;;;;;40.10;19.83;;;9.60;99.90;;;;;;5053845;28;20036;-51
2022/03/17 03:40:39;;;;;;;39.33;20.20;;;9.70;99.90;;;;;;5052825;28;20025;-51
2022/03/17 03:43:04;;;;;;;43.92;21.10;;;9.70;99.90;;;;;;5052078;28;20032;-52
2022/03/17 03:45:30;;;;;;;41.78;20.65;;;9.60;99.90;;;;;;5053062;28;20032;-51
2022/03/17 03:47:56;;;;;;;40.47;19.77;;;9.60;99.90;;;;;;5052128;28;20025;-50
2022/03/17 03:50:21;;;;;;;38.60;19.60;;;9.70;99.90;;;;;;5052171;28;20018;-48
2022/03/17 03:52:47;;;;;;;36.65;18.52;;;9.60;99.90;;;;;;5051834;28;20033;-54
2022/03/17 03:55:12;;;;;;;47.00;21.60;;;9.50;99.90;;;;;;5053452;28;20027;-53
2022/03/17 03:57:38;;;;;;;41.40;19.60;;;9.50;99.90;;;;;;5052298;28;20028;-49
2022/03/17 04:02:43;;;;;;;44.00;20.73;;;9.60;99.90;;;;;;5053421;28;20029;-48
2022/03/17 04:05:10;;;;;;;43.65;21.13;;;9.50;99.90;;;;;;5052178;28;20021;-48
2022/03/17 04:07:37;;;;;;;39.72;20.55;;;9.50;99.90;;;;;;5051675;28;20111;-50
2022/03/17 04:10:05;;;;;;;44.83;20.98;;;9.50;99.90;;;;;;5053025;28;20052;-48
2022/03/17 04:12:31;;;;;;;44.60;20.73;;;9.50;99.90;;;;;;5052571;28;20048;-49
2022/03/17 04:14:57;;;;;;;41.33;20.95;;;9.50;99.90;;;;;;5051735;28;20131;-48
2022/03/17 04:17:23;;;;;;;41.25;19.95;;;9.50;99.90;;;;;;5052851;28;20017;-49
2022/03/17 04:19:49;;;;;;;39.53;20.55;;;9.50;99.90;;;;;;5051649;28;20028;-47
2022/03/17 04:22:14;;;;;;;41.75;20.02;;;9.50;99.90;;;;;;5051570;28;20025;-47
2022/03/17 04:24:40;;;;;;;41.30;20.77;;;9.50;99.90;;;;;;5052778;28;20033;-48
2022/03/17 04:27:06;;;;;;;41.85;20.70;;;9.50;99.90;;;;;;5052517;28;20051;-50
2022/03/17 04:29:32;;;;;;;39.30;20.95;;;9.50;99.90;;;;;;5051494;28;20092;-47
2022/03/17 04:31:58;;;;;;;36.42;19.38;;;9.50;99.90;;;;;;5053009;28;20101;-48
2022/03/17 04:34:24;;;;;;;42.38;20.20;;;9.50;99.90;;;;;;5051747;28;20085;-49
2022/03/17 04:36:50;;;;;;;37.10;18.95;;;9.50;99.90;;;;;;5051411;28;20027;-48
2022/03/17 04:39:16;;;;;;;40.10;20.13;;;9.50;99.90;;;;;;5051413;28;20108;-48
2022/03/17 04:41:42;;;;;;;41.72;20.88;;;9.40;99.90;;;;;;5052714;28;20476;-48
2022/03/17 04:44:09;;;;;;;37.30;19.67;;;9.40;99.90;;;;;;5051430;28;20119;-47
2022/03/17 04:46:35;;;;;;;40.15;21.00;;;9.40;99.90;;;;;;5052867;28;20025;-47
2022/03/17 04:49:01;;;;;;;37.63;19.98;;;9.50;99.90;;;;;;5052766;28;20029;-47
2022/03/17 04:51:26;;;;;;;43.45;19.58;;;9.50;99.90;;;;;;5052621;28;20024;-49
2022/03/17 04:53:52;;;;;;;40.05;20.55;;;9.60;99.90;;;;;;5053469;28;20039;-48
2022/03/17 04:56:18;;;;;;;37.70;19.27;;;9.70;99.90;;;;;;5055634;28;20063;-48
2022/03/17 04:58:44;;;;;;;37.42;18.45;;;9.70;99.90;;;;;;5056057;28;20074;-51
2022/03/17 05:01:12;;;;;;;32.65;16.83;;;9.80;99.90;;;;;;5054860;28;20434;-50
2022/03/17 05:03:39;;;;;;;40.05;19.50;;;9.90;99.90;;;;;;5055602;28;20089;-58
2022/03/17 05:06:05;;;;;;;42.05;19.33;;;9.90;99.90;;;;;;5054923;28;20028;-51
2022/03/17 05:08:35;;;;;;;40.72;19.83;;;9.80;99.90;;;;;;5054717;28;20025;-48
2022/03/17 05:11:02;;;;;;;37.15;18.80;;;9.80;99.90;;;;;;5054547;28;20017;-48
2022/03/17 05:13:28;;;;;;;42.10;20.45;;;9.70;99.90;;;;;;5055731;28;20021;-47
2022/03/17 05:15:54;;;;;;;39.30;18.90;;;9.50;99.90;;;;;;5054454;28;20074;-48
2022/03/17 05:18:20;;;;;;;41.28;19.55;;;9.60;99.90;;;;;;5055601;28;20483;-49
2022/03/17 05:20:46;;;;;;;40.92;18.38;;;9.70;99.90;;;;;;5056267;28;20040;-48
2022/03/17 05:23:16;;;;;;;38.45;18.35;;;9.70;99.90;;;;;;5054165;28;20033;-48
2022/03/17 05:25:44;;;;;;;36.03;19.45;;;9.70;99.90;;;;;;5054254;28;20036;-48
2022/03/17 05:28:10;;;;;;;34.53;18.48;;;9.80;99.90;;;;;;5055470;28;20032;-48
2022/03/17 05:30:38;;;;;;;34.83;19.08;;;9.80;99.90;;;;;;5054162;28;20025;-48
2022/03/17 05:33:04;;;;;;;40.90;18.88;;;9.80;99.90;;;;;;5054213;28;20048;-48
2022/03/17 05:35:31;;;;;;;37.97;19.42;;;9.70;99.90;;;;;;5055547;28;20025;-48
2022/03/17 05:37:57;;;;;;;39.72;20.23;;;9.70;99.90;;;;;;5054372;28;20029;-52
2022/03/17 05:40:23;;;;;;;38.63;20.63;;;9.60;99.90;;;;;;5055229;28;20079;-47
2022/03/17 05:42:53;;;;;;;39.25;20.05;;;9.60;99.90;;;;;;5055619;28;20021;-47
2022/03/17 05:45:19;;;;;;;41.20;21.25;;;9.50;99.90;;;;;;5055141;28;20494;-48
2022/03/17 05:47:52;;;;;;;41.22;21.05;;;9.50;99.90;;;;;;5053829;28;20025;-50
2022/03/17 05:50:23;;;;;;;38.20;19.27;;;9.50;99.90;;;;;;5053925;28;20495;-47
2022/03/17 05:52:49;;;;;;;45.35;20.52;;;9.50;99.90;;;;;;5054161;28;20104;-51
2022/03/17 05:55:17;;;;;;;41.33;20.42;;;9.60;99.90;;;;;;5055017;28;20387;-48
2022/03/17 05:57:45;;;;;;;41.83;20.98;;;9.60;99.90;;;;;;5054471;28;20025;-47
2022/03/17 06:00:13;;;;;;;44.13;21.60;;;9.60;99.90;;;;;;5054908;28;20028;-48
2022/03/17 06:02:39;;;;;;;39.22;20.20;;;9.60;99.90;;;;;;5053556;28;20024;-49
2022/03/17 06:05:07;;;;;;;38.85;19.92;;;9.60;99.90;;;;;;5054845;28;20025;-48
2022/03/17 06:07:37;;;;;;;42.80;21.02;;;9.70;99.90;;;;;;5055215;28;20033;-50
2022/03/17 06:10:17;;;;;;;37.60;20.67;;;9.70;99.90;;;;;;5053526;28;20025;-48
2022/03/17 06:12:44;;;;;;;40.05;20.55;;;9.80;99.90;;;;;;5053519;28;20025;-48
2022/03/17 06:15:11;;;;;;;42.47;21.90;;;9.70;99.90;;;;;;5054950;28;20017;-51
2022/03/17 06:17:37;;;;;;;48.30;21.13;;;9.70;99.90;;;;;;5053611;28;20032;-49
2022/03/17 06:20:03;;;;;;;43.85;20.90;;;9.70;99.90;;;;;;5054752;28;20075;-48
2022/03/17 06:22:30;;;;;;;43.03;21.58;;;9.60;99.90;;;;;;5054683;28;20021;-53
2022/03/17 06:24:55;;;;;;;41.88;20.67;;;9.60;99.90;;;;;;5054386;28;20025;-54
2022/03/17 06:27:21;;;;;;;41.25;21.48;;;9.60;99.90;;;;;;5054192;28;20029;-48
2022/03/17 06:29:46;;;;;;;41.20;21.23;;;9.70;99.90;;;;;;5053163;28;20029;-52
2022/03/17 06:32:12;;;;;;;44.05;21.63;;;9.80;99.90;;;;;;5053017;28;20028;-52
2022/03/17 06:34:37;;;;;;;43.00;19.90;;;9.80;99.90;;;;;;5053042;28;20057;-51
2022/03/17 06:37:03;;;;;;;43.97;22.65;;;9.80;99.90;;;;;;5054466;28;20051;-49
2022/03/17 06:39:29;;;;;;;50.15;25.73;;;9.80;99.90;;;;;;5054228;28;20063;-47
2022/03/17 06:41:55;;;;;;;49.97;25.35;;;9.80;99.90;;;;;;5054056;28;20032;-48
2022/03/17 06:44:20;;;;;;;55.78;27.00;;;9.70;99.90;;;;;;5052861;28;20032;-47
2022/03/17 06:46:46;;;;;;;51.80;26.33;;;9.70;99.90;;;;;;5052627;28;20029;-47
2022/03/17 06:49:11;;;;;;;53.13;25.45;;;9.60;99.90;;;;;;5053952;28;20029;-53
2022/03/17 06:51:37;;;;;;;57.42;29.25;;;9.60;99.90;;;;;;5053075;28;20029;-54
2022/03/17 06:54:03;;;;;;;50.80;24.92;;;9.70;99.90;;;;;;5053932;28;20024;-53
2022/03/17 06:56:28;;;;;;;47.10;23.38;;;9.70;99.90;;;;;;5054112;28;20017;-53
2022/03/17 06:58:54;;;;;;;45.42;22.25;;;9.80;99.90;;;;;;5052948;28;20025;-49
2022/03/17 07:01:19;;;;;;;43.25;21.67;;;9.90;99.90;;;;;;5052897;28;20032;-51
2022/03/17 07:03:45;;;;;;;37.67;20.58;;;9.90;99.90;;;;;;5053705;28;20060;-51
2022/03/17 07:06:10;;;;;;;44.78;22.58;;;10.00;99.90;;;;;;5052397;28;20032;-48
2022/03/17 07:08:36;;;;;;;50.83;24.42;;;10.00;99.90;;;;;;5053593;28;20021;-48
2022/03/17 07:11:02;;;;;;;44.97;22.92;;;10.00;99.90;;;;;;5052822;28;20017;-52
2022/03/17 07:13:27;;;;;;;44.92;21.38;;;10.10;99.90;;;;;;5054175;28;20029;-48
2022/03/17 07:15:55;;;;;;;55.03;24.92;;;10.10;99.90;;;;;;5051728;28;20091;-54
2022/03/17 07:18:20;;;;;;;48.75;22.77;;;10.20;99.90;;;;;;5053839;28;20475;-52
2022/03/17 07:20:47;;;;;;;41.50;20.95;;;10.20;99.90;;;;;;5052880;28;20035;-49
2022/03/17 07:23:13;;;;;;;42.08;19.83;;;10.30;99.90;;;;;;5052310;28;20053;-53
2022/03/17 07:25:38;;;;;;;41.00;21.63;;;10.40;99.90;;;;;;5053335;28;20064;-51
2022/03/17 07:28:04;;;;;;;42.58;20.65;;;10.50;99.90;;;;;;5053472;28;20127;-53
2022/03/17 07:30:31;;;;;;;49.38;22.52;;;10.50;99.90;;;;;;5053361;28;20017;-53
2022/03/17 07:36:20;;;;;;;47.35;20.33;;;10.50;99.90;;;;;;5053562;28;20059;-52
2022/03/17 07:38:45;;;;;;;41.53;20.00;;;10.50;99.90;;;;;;5052331;28;20051;-56
2022/03/17 07:41:11;;;;;;;41.22;21.75;;;10.50;99.90;;;;;;5052882;28;20021;-50
2022/03/17 07:43:36;;;;;;;41.17;20.30;;;10.50;99.90;;;;;;5053520;28;20033;-52
2022/03/17 07:46:02;;;;;;;43.08;21.50;;;10.50;99.90;;;;;;5053329;28;20030;-50
2022/03/17 07:48:28;;;;;;;37.58;19.45;;;10.50;99.90;;;;;;5053053;28;20040;-53
2022/03/17 07:50:53;;;;;;;39.42;19.48;;;10.50;99.90;;;;;;5051852;28;20112;-52
2022/03/17 07:53:19;;;;;;;39.17;20.83;;;10.60;99.90;;;;;;5053172;28;20078;-50
2022/03/17 07:55:45;;;;;;;38.50;19.00;;;10.80;99.90;;;;;;5052640;28;20021;-51
2022/03/17 07:58:12;;;;;;;40.58;21.52;;;10.90;99.90;;;;;;5051832;28;20029;-53
2022/03/17 08:01:06;;;;;;;36.70;19.23;;;11.00;99.90;;;;;;5051796;28;20056;-52
2022/03/17 08:03:32;;;;;;;36.53;19.00;;;11.10;99.90;;;;;;5052573;28;20032;-50
2022/03/17 08:05:58;;;;;;;31.92;18.60;;;11.20;99.90;;;;;;5051941;28;20491;-55
2022/03/17 08:08:24;;;;;;;37.85;20.27;;;11.10;99.90;;;;;;5053166;28;20158;-50
2022/03/17 08:10:49;;;;;;;42.08;20.77;;;11.20;99.90;;;;;;5052563;28;20017;-55
2022/03/17 08:13:15;;;;;;;39.45;19.70;;;11.30;99.90;;;;;;5051826;28;20096;-52
2022/03/17 08:15:42;;;;;;;40.08;20.45;;;11.20;99.90;;;;;;5051674;28;20049;-49
2022/03/17 08:18:08;;;;;;;37.45;19.00;;;11.40;99.90;;;;;;5052937;28;20571;-48
2022/03/17 08:20:38;;;;;;;35.40;17.95;;;11.20;99.90;;;;;;5053146;28;20029;-52
2022/03/17 08:23:04;;;;;;;39.80;19.75;;;11.40;99.90;;;;;;5053465;28;20048;-52
2022/03/17 08:25:29;;;;;;;30.95;17.83;;;11.50;99.90;;;;;;5051915;28;20025;-52
2022/03/17 08:27:55;;;;;;;36.70;18.33;;;11.50;99.90;;;;;;5053991;28;20114;-50
2022/03/17 08:30:21;;;;;;;43.03;20.90;;;11.70;99.90;;;;;;5055742;28;20021;-53
2022/03/17 08:32:48;;;;;;;35.60;19.25;;;11.60;99.90;;;;;;5057211;28;20017;-48
2022/03/17 08:35:14;;;;;;;37.67;19.52;;;11.60;99.90;;;;;;5055233;28;20112;-51
2022/03/17 08:37:45;;;;;;;43.58;21.60;;;11.60;99.90;;;;;;5056433;28;20107;-49
2022/03/17 08:40:12;;;;;;;38.03;20.02;;;11.60;99.90;;;;;;5056073;28;20029;-52
2022/03/17 08:42:39;;;;;;;38.85;21.23;;;11.50;99.90;;;;;;5055160;28;20041;-48
2022/03/17 08:49:18;;;;;;;34.25;18.27;;;11.50;99.90;;;;;;5055077;28;20025;-53
2022/03/17 08:50:39;;;;;;;42.03;21.02;;;11.40;99.90;;;;;;5056399;28;20085;-52
2022/03/17 08:53:05;;;;;;;38.10;19.20;;;11.30;99.90;;;;;;5055740;28;20064;-48
2022/03/17 08:55:31;;;;;;;41.38;20.05;;;11.30;99.90;;;;;;5056055;28;20025;-52
2022/03/17 08:57:57;;;;;;;40.88;20.95;;;11.30;99.90;;;;;;5056078;28;20107;-50
2022/03/17 09:00:23;;;;;;;39.38;21.42;;;11.20;99.90;;;;;;5056129;28;20029;-48
2022/03/17 09:02:49;;;;;;;38.63;19.55;;;11.20;99.90;;;;;;5054743;28;20502;-50
2022/03/17 09:05:15;;;;;;;40.75;20.83;;;11.40;99.90;;;;;;5055944;28;20036;-52
2022/03/17 09:07:41;;;;;;;35.85;19.48;;;11.40;99.90;;;;;;5055775;28;20025;-52
2022/03/17 09:10:07;;;;;;;31.67;18.20;;;11.50;99.90;;;;;;5056330;28;20029;-49
2022/03/17 09:12:33;;;;;;;41.88;19.38;;;11.60;99.90;;;;;;5056164;28;20016;-53
2022/03/17 09:14:59;;;;;;;36.83;19.17;;;11.50;99.90;;;;;;5055753;28;20028;-52
2022/03/17 09:17:25;;;;;;;47.08;23.75;;;11.50;99.90;;;;;;5055951;28;20392;-49
2022/03/17 09:19:51;;;;;;;36.60;19.65;;;11.60;99.90;;;;;;5055799;28;20032;-49
2022/03/17 09:22:16;;;;;;;41.08;20.02;;;11.60;99.90;;;;;;5056029;28;20032;-50
2022/03/17 09:24:43;;;;;;;41.50;22.90;;;11.60;99.90;;;;;;5055827;28;20033;-48
2022/03/17 09:27:10;;;;;;;41.83;21.55;;;11.60;99.90;;;;;;5057176;28;20025;-52
2022/03/17 09:29:38;;;;;;;36.10;20.25;;;11.60;99.90;;;;;;5055856;28;20047;-51
2022/03/17 09:32:05;;;;;;;40.22;20.48;;;11.70;99.90;;;;;;5055522;28;20028;-51
2022/03/17 09:34:33;;;;;;;35.00;19.27;;;11.80;99.90;;;;;;5055351;28;20025;-50
2022/03/17 09:36:59;;;;;;;33.55;18.80;;;11.80;99.90;;;;;;5054023;28;20021;-49
2022/03/17 09:39:44;;;;;;;36.58;20.98;;;11.90;99.90;;;;;;5053380;28;20032;-55
2022/03/17 09:42:09;;;;;;;40.97;21.25;;;11.90;99.90;;;;;;5055340;28;20018;-49
2022/03/17 09:44:35;;;;;;;36.95;20.92;;;11.90;99.90;;;;;;5054226;28;20021;-50
2022/03/17 09:47:03;;;;;;;37.08;18.52;;;11.90;99.90;;;;;;5055058;28;20025;-51
2022/03/17 09:49:29;;;;;;;38.60;19.42;;;11.90;99.90;;;;;;5053866;28;20033;-50
2022/03/17 09:51:57;;;;;;;38.30;20.60;;;11.80;99.90;;;;;;5053935;28;20017;-53
2022/03/17 09:54:23;;;;;;;34.33;18.02;;;11.90;99.90;;;;;;5053710;28;20032;-49
2022/03/17 09:56:49;;;;;;;42.55;19.95;;;12.00;99.90;;;;;;5053712;28;20029;-49
2022/03/17 09:59:14;;;;;;;44.17;21.70;;;12.10;99.90;;;;;;5053970;28;20130;-51
2022/03/17 10:01:41;;;;;;;45.45;21.20;;;12.10;99.90;;;;;;5054906;28;20108;-52
2022/03/17 10:04:07;;;;;;;38.45;20.60;;;12.00;99.90;;;;;;5053564;28;20025;-54
2022/03/17 10:06:34;;;;;;;37.85;19.80;;;12.00;99.90;;;;;;5053588;28;20424;-49
2022/03/17 10:16:04;;;;;;;39.00;20.92;;;12.10;99.90;;;;;;5054975;28;20078;-53
2022/03/17 10:18:30;;;;;;;46.03;22.52;;;12.20;99.90;;;;;;5053935;28;20022;-55
2022/03/17 10:21:18;;;;;;;43.17;21.85;;;12.10;99.90;;;;;;5053583;28;20028;-50
2022/03/17 10:24:02;;;;;;;43.35;23.33;;;12.00;99.90;;;;;;5054050;28;20052;-51
2022/03/17 10:26:36;;;;;;;42.95;22.17;;;12.00;99.90;;;;;;5054287;28;20029;-49
2022/03/17 10:29:19;;;;;;;39.70;21.85;;;12.00;99.90;;;;;;5052914;28;20059;-55
2022/03/17 10:31:52;;;;;;;45.50;23.45;;;12.00;99.90;;;;;;5053936;28;20021;-51
2022/03/17 10:34:19;;;;;;;44.67;22.98;;;11.90;99.90;;;;;;5054223;28;20029;-50
2022/03/17 10:36:45;;;;;;;47.72;23.63;;;11.90;99.90;;;;;;5054197;28;20021;-48
2022/03/17 10:39:11;;;;;;;46.10;23.83;;;11.80;99.90;;;;;;5053005;28;20120;-49
2022/03/17 10:41:42;;;;;;;45.28;23.38;;;11.80;99.90;;;;;;5054177;28;20100;-52
2022/03/17 10:44:16;;;;;;;39.35;22.75;;;11.80;99.90;;;;;;5052944;28;20037;-48
2022/03/17 10:47:01;;;;;;;47.28;25.27;;;11.80;99.90;;;;;;5052713;28;20025;-50
2022/03/17 10:49:30;;;;;;;44.30;21.85;;;11.90;99.90;;;;;;5052750;28;20025;-48
2022/03/17 10:51:56;;;;;;;44.75;21.83;;;11.90;99.90;;;;;;5053317;28;20468;-48
2022/03/17 10:54:23;;;;;;;45.55;24.67;;;11.90;99.90;;;;;;5052891;28;20024;-47
2022/03/17 10:57:05;;;;;;;44.88;24.35;;;11.90;99.90;;;;;;5053772;28;20391;-48
2022/03/17 11:05:57;;;;;;;47.63;22.73;;;11.80;99.90;;;;;;5054042;28;20066;-48
2022/03/17 11:08:22;;;;;;;42.45;23.30;;;11.70;99.90;;;;;;5052530;28;20031;-48
2022/03/17 11:10:52;;;;;;;46.60;23.17;;;11.80;99.90;;;;;;5052425;28;20025;-50
2022/03/17 11:13:19;;;;;;;45.00;23.10;;;11.80;99.90;;;;;;5052433;28;20167;-48
2022/03/17 11:15:53;;;;;;;44.45;23.15;;;11.80;99.90;;;;;;5053758;28;20017;-50
2022/03/17 11:18:21;;;;;;;42.33;23.05;;;11.80;99.90;;;;;;5053169;28;20157;-51
2022/03/17 11:20:47;;;;;;;44.80;24.83;;;11.80;99.90;;;;;;5053850;28;20036;-48
2022/03/17 11:23:19;;;;;;;45.30;22.80;;;11.90;99.90;;;;;;5052247;28;20035;-47
2022/03/17 11:25:57;;;;;;;50.50;24.65;;;11.90;99.90;;;;;;5052419;28;20025;-53
2022/03/17 11:28:33;;;;;;;43.50;23.55;;;11.80;99.90;;;;;;5052128;28;20033;-50
2022/03/17 11:31:09;;;;;;;54.72;26.48;;;11.80;99.90;;;;;;5053042;28;20112;-47
2022/03/17 11:33:44;;;;;;;47.40;25.98;;;11.80;99.90;;;;;;5052183;28;20070;-50
2022/03/17 11:36:10;;;;;;;42.72;22.15;;;11.70;99.90;;;;;;5052798;28;20104;-52
2022/03/17 11:38:43;;;;;;;41.70;22.67;;;11.70;99.90;;;;;;5053248;28;20079;-47
2022/03/17 11:41:24;;;;;;;43.67;22.77;;;11.70;99.90;;;;;;5053506;28;20040;-53
2022/03/17 11:43:49;;;;;;;39.45;20.35;;;11.80;99.90;;;;;;5053471;28;20084;-48
2022/03/17 11:46:23;;;;;;;41.15;22.23;;;11.80;99.90;;;;;;5053296;28;20094;-48
2022/03/17 11:48:51;;;;;;;40.78;19.73;;;11.80;99.90;;;;;;5053044;28;20033;-48
2022/03/17 11:51:17;;;;;;;40.10;19.48;;;11.80;99.90;;;;;;5052226;28;20021;-48
2022/03/17 11:54:02;;;;;;;37.22;19.17;;;11.90;99.90;;;;;;5053338;28;20112;-48
2022/03/17 11:56:37;;;;;;;30.00;15.57;;;11.90;99.90;;;;;;5053031;28;20104;-50
2022/03/17 11:59:07;;;;;;;28.50;13.93;;;11.80;99.90;;;;;;5052695;28;20025;-51
2022/03/17 12:01:43;;;;;;;24.23;12.63;;;11.80;99.90;;;;;;5053182;28;20036;-54
2022/03/17 12:11:09;;;;;;;17.73;8.30;;;11.80;99.90;;;;;;5057295;28;20071;-48
2022/03/17 12:13:36;;;;;;;11.18;6.57;;;11.80;99.90;;;;;;5057004;28;20028;-46
2022/03/17 12:16:03;;;;;;;13.13;5.57;;;11.80;99.90;;;;;;5055549;28;20025;-49
2022/03/17 12:18:29;;;;;;;10.23;6.30;;;11.80;99.90;;;;;;5056037;28;20053;-48
2022/03/17 12:20:54;;;;;;;11.98;5.55;;;11.80;99.90;;;;;;5056930;28;20060;-47
2022/03/17 12:23:43;;;;;;;11.60;5.53;;;11.80;99.90;;;;;;5055592;28;20052;-48
2022/03/17 12:26:09;;;;;;;8.30;5.10;;;11.80;99.90;;;;;;5056744;28;20021;-47
2022/03/17 12:28:44;;;;;;;8.23;4.75;;;11.70;99.90;;;;;;5056138;28;20431;-47
2022/03/17 12:34:54;;;;;;;11.75;5.75;;;11.70;99.90;;;;;;5057256;28;20057;-48
2022/03/17 12:37:23;;;;;;;12.93;5.47;;;11.70;99.90;;;;;;5055735;28;20032;-48
2022/03/17 12:39:50;;;;;;;12.35;5.45;;;11.70;99.90;;;;;;5056085;28;20064;-48
2022/03/17 12:42:24;;;;;;;9.68;4.97;;;11.50;99.90;;;;;;5055608;28;20170;-49
2022/03/17 12:45:03;;;;;;;10.80;6.28;;;11.60;99.90;;;;;;5056459;28;20060;-49
2022/03/17 12:47:31;;;;;;;12.63;7.10;;;11.70;99.90;;;;;;5054952;28;20049;-48
2022/03/17 12:49:58;;;;;;;11.93;7.80;;;11.70;99.90;;;;;;5055306;28;20116;-49
2022/03/17 12:52:30;;;;;;;13.23;7.95;;;11.70;99.90;;;;;;5054987;28;20031;-49
2022/03/17 12:55:01;;;;;;;12.85;6.88;;;11.70;99.90;;;;;;5055103;28;20016;-50
2022/03/17 12:57:29;;;;;;;18.50;7.60;;;11.70;99.90;;;;;;5055245;28;20033;-50
2022/03/17 12:59:55;;;;;;;12.63;7.50;;;11.80;99.90;;;;;;5054845;28;20025;-53
2022/03/17 13:02:22;;;;;;;17.67;7.03;;;11.80;99.90;;;;;;5056072;28;20033;-47
2022/03/17 13:04:50;;;;;;;14.10;7.57;;;11.80;99.90;;;;;;5055931;28;20033;-54
2022/03/17 13:07:17;;;;;;;15.95;8.15;;;11.80;99.90;;;;;;5055969;28;20021;-48
2022/03/17 13:09:44;;;;;;;17.67;8.00;;;11.80;99.90;;;;;;5055021;28;20021;-49
2022/03/17 13:15:00;;;;;;;22.15;9.80;;;11.90;99.90;;;;;;5055396;28;20494;-55
2022/03/17 13:17:32;;;;;;;15.35;8.18;;;11.80;99.90;;;;;;5055779;28;20029;-49
2022/03/17 13:19:57;;;;;;;13.57;8.32;;;11.80;99.90;;;;;;5054493;28;20106;-52
2022/03/17 13:22:25;;;;;;;16.52;8.85;;;11.70;99.90;;;;;;5054812;28;20033;-48